sensor_id;sensor_type;location;lat;lon;timestamp;temperature;humidity
7129;DHT22;3606;52.930;8.644;2023-03-24T00:01:02;10.50;99.90
7129;DHT22;3606;52.930;8.644;2023-03-24T00:03:29;10.50;99.90
7129;DHT22;3606;52.930;8.644;2023-03-24T00:05:59;10.50;99.90
7129;DHT22;3606;52.930;8.644;2023-03-24T00:08:30;10.50;99.90
7129;DHT22;3606;52.930;8.644;2023-03-24T00:11:00;10.50;99.90
7129;DHT22;3606;52.930;8.644;2023-03-24T00:13:29;10.50;99.90
7129;DHT22;3606;52.930;8.644;2023-03-24T00:15:56;10.50;99.90
7129;DHT22;3606;52.930;8.644;2023-03-24T00:18:22;10.50;99.90
7129;DHT22;3606;52.930;8.644;2023-03-24T00:20:52;10.50;99.90
7129;DHT22;3606;52.930;8.644;2023-03-24T00:23:25;10.40;99.90
7129;DHT22;3606;52.930;8.644;2023-03-24T00:26:04;10.50;99.90
7129;DHT22;3606;52.930;8.644;2023-03-24T00:28:31;10.50;99.90
7129;DHT22;3606;52.930;8.644;2023-03-24T00:30:59;10.40;99.90
7129;DHT22;3606;52.930;8.644;2023-03-24T00:33:26;10.50;99.90
7129;DHT22;3606;52.930;8.644;2023-03-24T00:35:52;10.50;99.90
7129;DHT22;3606;52.930;8.644;2023-03-24T00:38:18;10.40;99.90
7129;DHT22;3606;52.930;8.644;2023-03-24T00:40:45;10.50;99.90
7129;DHT22;3606;52.930;8.644;2023-03-24T00:43:13;10.50;99.90
7129;DHT22;3606;52.930;8.644;2023-03-24T00:45:39;10.50;99.90
7129;DHT22;3606;52.930;8.644;2023-03-24T00:48:15;10.50;99.90
7129;DHT22;3606;52.930;8.644;2023-03-24T00:50:50;10.50;99.90
7129;DHT22;3606;52.930;8.644;2023-03-24T00:53:16;10.50;99.90
7129;DHT22;3606;52.930;8.644;2023-03-24T00:55:43;10.50;99.90
7129;DHT22;3606;52.930;8.644;2023-03-24T00:58:15;10.40;99.90
7129;DHT22;3606;52.930;8.644;2023-03-24T01:00:43;10.40;99.90
7129;DHT22;3606;52.930;8.644;2023-03-24T01:03:09;10.40;99.90
7129;DHT22;3606;52.930;8.644;2023-03-24T01:05:36;10.50;99.90
7129;DHT22;3606;52.930;8.644;2023-03-24T01:08:02;10.50;99.90
7129;DHT22;3606;52.930;8.644;2023-03-24T01:10:30;10.50;99.90
7129;DHT22;3606;52.930;8.644;2023-03-24T01:12:57;10.50;99.90
7129;DHT22;3606;52.930;8.644;2023-03-24T01:15:30;10.50;99.90
7129;DHT22;3606;52.930;8.644;2023-03-24T01:17:58;10.50;99.90
7129;DHT22;3606;52.930;8.644;2023-03-24T01:20:27;10.60;99.90
7129;DHT22;3606;52.930;8.644;2023-03-24T01:22:58;10.50;99.90
7129;DHT22;3606;52.930;8.644;2023-03-24T01:25:23;10.60;99.90
7129;DHT22;3606;52.930;8.644;2023-03-24T01:27:51;10.60;99.90
7129;DHT22;3606;52.930;8.644;2023-03-24T01:30:21;10.60;99.90
7129;DHT22;3606;52.930;8.644;2023-03-24T01:32:47;10.70;99.90
7129;DHT22;3606;52.930;8.644;2023-03-24T01:35:13;10.70;99.90
7129;DHT22;3606;52.930;8.644;2023-03-24T01:37:39;10.60;99.90
7129;DHT22;3606;52.930;8.644;2023-03-24T01:40:06;10.70;99.90
7129;DHT22;3606;52.930;8.644;2023-03-24T01:42:36;10.70;99.90
7129;DHT22;3606;52.930;8.644;2023-03-24T01:48:49;10.70;99.90
7129;DHT22;3606;52.930;8.644;2023-03-24T01:51:11;10.80;99.90
7129;DHT22;3606;52.930;8.644;2023-03-24T01:53:46;10.80;99.90
7129;DHT22;3606;52.930;8.644;2023-03-24T01:56:13;10.80;99.90
7129;DHT22;3606;52.930;8.644;2023-03-24T01:58:42;10.80;99.90
7129;DHT22;3606;52.930;8.644;2023-03-24T02:01:10;10.80;99.90
7129;DHT22;3606;52.930;8.644;2023-03-24T02:03:37;10.80;99.90
7129;DHT22;3606;52.930;8.644;2023-03-24T02:06:05;10.80;99.90
7129;DHT22;3606;52.930;8.644;2023-03-24T02:08:43;10.80;99.90
7129;DHT22;3606;52.930;8.644;2023-03-24T02:11:11;10.90;99.90
7129;DHT22;3606;52.930;8.644;2023-03-24T02:13:37;10.90;99.90
7129;DHT22;3606;52.930;8.644;2023-03-24T02:19:17;11.00;99.90
7129;DHT22;3606;52.930;8.644;2023-03-24T02:27:41;11.10;99.90
7129;DHT22;3606;52.930;8.644;2023-03-24T02:38:36;11.10;99.90
7129;DHT22;3606;52.930;8.644;2023-03-24T02:46:38;11.10;99.90
7129;DHT22;3606;52.930;8.644;2023-03-24T02:49:31;11.10;99.90
7129;DHT22;3606;52.930;8.644;2023-03-24T02:52:20;11.20;99.90
7129;DHT22;3606;52.930;8.644;2023-03-24T02:55:00;11.20;99.90
7129;DHT22;3606;52.930;8.644;2023-03-24T02:57:34;11.20;99.90
7129;DHT22;3606;52.930;8.644;2023-03-24T03:00:19;11.20;99.90
7129;DHT22;3606;52.930;8.644;2023-03-24T03:02:55;11.20;99.90
7129;DHT22;3606;52.930;8.644;2023-03-24T03:05:27;11.30;99.90
7129;DHT22;3606;52.930;8.644;2023-03-24T03:07:56;11.20;99.90
7129;DHT22;3606;52.930;8.644;2023-03-24T03:10:26;11.20;99.90
7129;DHT22;3606;52.930;8.644;2023-03-24T03:12:55;11.30;99.90
7129;DHT22;3606;52.930;8.644;2023-03-24T03:15:25;11.30;99.90
7129;DHT22;3606;52.930;8.644;2023-03-24T03:17:55;11.30;99.90
7129;DHT22;3606;52.930;8.644;2023-03-24T03:20:24;11.30;99.90
7129;DHT22;3606;52.930;8.644;2023-03-24T03:22:55;11.30;99.90
7129;DHT22;3606;52.930;8.644;2023-03-24T03:25:26;11.30;99.90
7129;DHT22;3606;52.930;8.644;2023-03-24T03:27:54;11.40;99.90
7129;DHT22;3606;52.930;8.644;2023-03-24T03:30:27;11.30;99.90
7129;DHT22;3606;52.930;8.644;2023-03-24T03:32:58;11.40;99.90
7129;DHT22;3606;52.930;8.644;2023-03-24T03:35:48;11.40;99.90
7129;DHT22;3606;52.930;8.644;2023-03-24T03:38:37;11.40;99.90
7129;DHT22;3606;52.930;8.644;2023-03-24T03:41:06;11.40;99.90
7129;DHT22;3606;52.930;8.644;2023-03-24T03:43:32;11.40;99.90
7129;DHT22;3606;52.930;8.644;2023-03-24T03:45:59;11.40;99.90
7129;DHT22;3606;52.930;8.644;2023-03-24T03:48:26;11.50;99.90
7129;DHT22;3606;52.930;8.644;2023-03-24T03:50:54;11.40;99.90
7129;DHT22;3606;52.930;8.644;2023-03-24T03:53:23;11.50;99.90
7129;DHT22;3606;52.930;8.644;2023-03-24T03:55:50;11.50;99.90
7129;DHT22;3606;52.930;8.644;2023-03-24T03:58:16;11.50;99.90
7129;DHT22;3606;52.930;8.644;2023-03-24T04:00:42;11.50;99.90
7129;DHT22;3606;52.930;8.644;2023-03-24T04:03:33;11.50;99.90
7129;DHT22;3606;52.930;8.644;2023-03-24T04:06:21;11.60;99.90
7129;DHT22;3606;52.930;8.644;2023-03-24T04:09:14;11.60;99.90
7129;DHT22;3606;52.930;8.644;2023-03-24T04:12:14;11.60;99.90
7129;DHT22;3606;52.930;8.644;2023-03-24T04:15:06;11.60;99.90
7129;DHT22;3606;52.930;8.644;2023-03-24T04:20:55;11.60;99.90
7129;DHT22;3606;52.930;8.644;2023-03-24T04:23:47;11.60;99.90
7129;DHT22;3606;52.930;8.644;2023-03-24T04:29:59;11.60;99.90
7129;DHT22;3606;52.930;8.644;2023-03-24T04:32:40;11.60;99.90
7129;DHT22;3606;52.930;8.644;2023-03-24T04:35:14;11.70;99.90
7129;DHT22;3606;52.930;8.644;2023-03-24T04:37:45;11.60;99.90
7129;DHT22;3606;52.930;8.644;2023-03-24T04:40:12;11.60;99.90
7129;DHT22;3606;52.930;8.644;2023-03-24T04:42:48;11.70;99.90
7129;DHT22;3606;52.930;8.644;2023-03-24T04:45:17;11.70;99.90
7129;DHT22;3606;52.930;8.644;2023-03-24T04:47:53;11.70;99.90
7129;DHT22;3606;52.930;8.644;2023-03-24T04:50:35;11.70;99.90
7129;DHT22;3606;52.930;8.644;2023-03-24T04:53:02;11.70;99.90
7129;DHT22;3606;52.930;8.644;2023-03-24T04:55:43;11.70;99.90
7129;DHT22;3606;52.930;8.644;2023-03-24T04:58:10;11.70;99.90
7129;DHT22;3606;52.930;8.644;2023-03-24T05:00:36;11.70;99.90
7129;DHT22;3606;52.930;8.644;2023-03-24T05:03:02;11.70;99.90
7129;DHT22;3606;52.930;8.644;2023-03-24T05:05:28;11.70;99.90
7129;DHT22;3606;52.930;8.644;2023-03-24T05:07:53;11.70;99.90
7129;DHT22;3606;52.930;8.644;2023-03-24T05:10:21;11.70;99.90
7129;DHT22;3606;52.930;8.644;2023-03-24T05:12:47;11.70;99.90
7129;DHT22;3606;52.930;8.644;2023-03-24T05:15:13;11.70;99.90
7129;DHT22;3606;52.930;8.644;2023-03-24T05:17:39;11.70;99.90
7129;DHT22;3606;52.930;8.644;2023-03-24T05:20:05;11.70;99.90
7129;DHT22;3606;52.930;8.644;2023-03-24T05:22:35;11.80;99.90
7129;DHT22;3606;52.930;8.644;2023-03-24T05:25:01;11.80;99.90
7129;DHT22;3606;52.930;8.644;2023-03-24T05:27:27;11.80;99.90
7129;DHT22;3606;52.930;8.644;2023-03-24T05:29:52;11.80;99.90
7129;DHT22;3606;52.930;8.644;2023-03-24T05:32:18;11.80;99.90
7129;DHT22;3606;52.930;8.644;2023-03-24T05:34:43;11.80;99.90
7129;DHT22;3606;52.930;8.644;2023-03-24T05:37:09;11.80;99.90
7129;DHT22;3606;52.930;8.644;2023-03-24T05:39:37;11.80;99.90
7129;DHT22;3606;52.930;8.644;2023-03-24T05:42:03;11.80;99.90
7129;DHT22;3606;52.930;8.644;2023-03-24T05:44:28;11.80;99.90
7129;DHT22;3606;52.930;8.644;2023-03-24T05:46:54;11.80;99.90
7129;DHT22;3606;52.930;8.644;2023-03-24T05:49:20;11.80;99.90
7129;DHT22;3606;52.930;8.644;2023-03-24T05:51:45;11.80;99.90
7129;DHT22;3606;52.930;8.644;2023-03-24T05:54:11;11.80;99.90
7129;DHT22;3606;52.930;8.644;2023-03-24T05:56:36;11.80;99.90
7129;DHT22;3606;52.930;8.644;2023-03-24T05:59:03;11.80;99.90
7129;DHT22;3606;52.930;8.644;2023-03-24T06:01:29;11.80;99.90
7129;DHT22;3606;52.930;8.644;2023-03-24T06:03:55;11.70;99.90
7129;DHT22;3606;52.930;8.644;2023-03-24T06:06:20;11.70;99.90
7129;DHT22;3606;52.930;8.644;2023-03-24T06:08:46;11.70;99.90
7129;DHT22;3606;52.930;8.644;2023-03-24T06:11:12;11.70;99.90
7129;DHT22;3606;52.930;8.644;2023-03-24T06:13:38;11.70;99.90
7129;DHT22;3606;52.930;8.644;2023-03-24T06:16:04;11.60;99.90
7129;DHT22;3606;52.930;8.644;2023-03-24T06:18:30;11.50;99.90
7129;DHT22;3606;52.930;8.644;2023-03-24T06:20:58;11.30;99.90
7129;DHT22;3606;52.930;8.644;2023-03-24T06:23:24;11.10;99.90
7129;DHT22;3606;52.930;8.644;2023-03-24T06:25:52;11.00;99.90
7129;DHT22;3606;52.930;8.644;2023-03-24T06:28:19;10.90;99.90
7129;DHT22;3606;52.930;8.644;2023-03-24T06:30:45;10.80;99.90
7129;DHT22;3606;52.930;8.644;2023-03-24T06:33:16;10.70;99.90
7129;DHT22;3606;52.930;8.644;2023-03-24T06:35:42;10.70;99.90
7129;DHT22;3606;52.930;8.644;2023-03-24T06:38:07;10.60;99.90
7129;DHT22;3606;52.930;8.644;2023-03-24T06:40:33;10.60;99.90
7129;DHT22;3606;52.930;8.644;2023-03-24T06:43:00;10.60;99.90
7129;DHT22;3606;52.930;8.644;2023-03-24T06:45:26;10.60;99.90
7129;DHT22;3606;52.930;8.644;2023-03-24T06:47:52;10.60;99.90
7129;DHT22;3606;52.930;8.644;2023-03-24T06:50:20;10.50;99.90
7129;DHT22;3606;52.930;8.644;2023-03-24T06:52:46;10.40;99.90
7129;DHT22;3606;52.930;8.644;2023-03-24T06:55:12;10.50;99.90
7129;DHT22;3606;52.930;8.644;2023-03-24T06:57:37;10.70;99.90
7129;DHT22;3606;52.930;8.644;2023-03-24T07:00:04;10.80;99.90
7129;DHT22;3606;52.930;8.644;2023-03-24T07:02:30;10.80;99.90
7129;DHT22;3606;52.930;8.644;2023-03-24T07:05:03;11.00;99.90
7129;DHT22;3606;52.930;8.644;2023-03-24T07:07:34;11.40;99.90
7129;DHT22;3606;52.930;8.644;2023-03-24T07:10:00;11.80;99.90
7129;DHT22;3606;52.930;8.644;2023-03-24T07:12:26;12.10;99.90
7129;DHT22;3606;52.930;8.644;2023-03-24T07:14:52;12.40;99.90
7129;DHT22;3606;52.930;8.644;2023-03-24T07:17:18;12.70;99.90
7129;DHT22;3606;52.930;8.644;2023-03-24T07:19:44;12.80;99.90
7129;DHT22;3606;52.930;8.644;2023-03-24T07:22:10;12.90;99.90
7129;DHT22;3606;52.930;8.644;2023-03-24T07:24:36;13.10;99.90
7129;DHT22;3606;52.930;8.644;2023-03-24T07:27:02;13.20;99.90
7129;DHT22;3606;52.930;8.644;2023-03-24T07:29:27;13.30;99.90
7129;DHT22;3606;52.930;8.644;2023-03-24T07:31:53;13.10;99.90
7129;DHT22;3606;52.930;8.644;2023-03-24T07:34:23;13.00;99.90
7129;DHT22;3606;52.930;8.644;2023-03-24T07:36:50;13.20;99.90
7129;DHT22;3606;52.930;8.644;2023-03-24T07:39:16;12.80;99.90
7129;DHT22;3606;52.930;8.644;2023-03-24T07:41:42;12.30;99.90
7129;DHT22;3606;52.930;8.644;2023-03-24T07:44:08;12.00;99.90
7129;DHT22;3606;52.930;8.644;2023-03-24T07:46:34;12.50;99.90
7129;DHT22;3606;52.930;8.644;2023-03-24T07:48:59;12.80;99.90
7129;DHT22;3606;52.930;8.644;2023-03-24T07:51:26;13.40;99.90
7129;DHT22;3606;52.930;8.644;2023-03-24T07:53:52;13.70;99.90
7129;DHT22;3606;52.930;8.644;2023-03-24T07:56:17;14.20;99.90
7129;DHT22;3606;52.930;8.644;2023-03-24T07:58:43;14.50;99.90
7129;DHT22;3606;52.930;8.644;2023-03-24T08:01:09;13.80;99.90
7129;DHT22;3606;52.930;8.644;2023-03-24T08:03:36;13.30;99.90
7129;DHT22;3606;52.930;8.644;2023-03-24T08:06:03;13.00;99.90
7129;DHT22;3606;52.930;8.644;2023-03-24T08:08:29;12.80;99.90
7129;DHT22;3606;52.930;8.644;2023-03-24T08:10:56;12.70;99.90
7129;DHT22;3606;52.930;8.644;2023-03-24T08:13:22;12.70;99.90
7129;DHT22;3606;52.930;8.644;2023-03-24T08:15:47;13.20;99.90
7129;DHT22;3606;52.930;8.644;2023-03-24T08:18:13;13.50;99.90
7129;DHT22;3606;52.930;8.644;2023-03-24T08:20:39;14.00;1.00
7129;DHT22;3606;52.930;8.644;2023-03-24T08:23:05;14.40;27.50
7129;DHT22;3606;52.930;8.644;2023-03-24T08:25:31;14.30;99.90
7129;DHT22;3606;52.930;8.644;2023-03-24T08:27:56;14.00;99.90
7129;DHT22;3606;52.930;8.644;2023-03-24T08:30:24;13.90;99.90
7129;DHT22;3606;52.930;8.644;2023-03-24T08:32:58;14.30;99.90
7129;DHT22;3606;52.930;8.644;2023-03-24T08:35:28;15.00;99.90
7129;DHT22;3606;52.930;8.644;2023-03-24T08:37:54;15.30;99.90
7129;DHT22;3606;52.930;8.644;2023-03-24T08:40:22;15.10;99.90
7129;DHT22;3606;52.930;8.644;2023-03-24T08:42:50;14.80;99.90
7129;DHT22;3606;52.930;8.644;2023-03-24T08:45:17;14.90;99.90
7129;DHT22;3606;52.930;8.644;2023-03-24T08:47:46;14.20;73.80
7129;DHT22;3606;52.930;8.644;2023-03-24T08:50:12;13.40;99.90
7129;DHT22;3606;52.930;8.644;2023-03-24T08:52:38;13.00;1.00
7129;DHT22;3606;52.930;8.644;2023-03-24T08:55:04;12.70;1.00
7129;DHT22;3606;52.930;8.644;2023-03-24T08:57:30;12.40;1.00
7129;DHT22;3606;52.930;8.644;2023-03-24T08:59:56;12.20;1.00
7129;DHT22;3606;52.930;8.644;2023-03-24T09:02:21;12.00;1.00
7129;DHT22;3606;52.930;8.644;2023-03-24T09:04:47;11.90;1.00
7129;DHT22;3606;52.930;8.644;2023-03-24T09:07:14;11.90;1.00
7129;DHT22;3606;52.930;8.644;2023-03-24T09:09:40;11.70;1.00
7129;DHT22;3606;52.930;8.644;2023-03-24T09:12:06;11.60;1.00
7129;DHT22;3606;52.930;8.644;2023-03-24T09:14:32;11.60;1.00
7129;DHT22;3606;52.930;8.644;2023-03-24T09:16:57;11.90;83.90
7129;DHT22;3606;52.930;8.644;2023-03-24T09:19:23;12.80;1.00
7129;DHT22;3606;52.930;8.644;2023-03-24T09:21:49;13.90;1.00
7129;DHT22;3606;52.930;8.644;2023-03-24T09:24:15;16.00;1.00
7129;DHT22;3606;52.930;8.644;2023-03-24T09:26:40;17.00;1.00
7129;DHT22;3606;52.930;8.644;2023-03-24T09:29:06;17.70;99.90
7129;DHT22;3606;52.930;8.644;2023-03-24T09:31:32;18.00;99.90
7129;DHT22;3606;52.930;8.644;2023-03-24T09:33:58;17.10;99.90
7129;DHT22;3606;52.930;8.644;2023-03-24T09:36:24;15.80;99.90
7129;DHT22;3606;52.930;8.644;2023-03-24T09:38:50;15.20;99.90
7129;DHT22;3606;52.930;8.644;2023-03-24T09:41:27;15.00;99.90
7129;DHT22;3606;52.930;8.644;2023-03-24T09:44:01;14.90;99.90
7129;DHT22;3606;52.930;8.644;2023-03-24T09:46:36;15.30;99.90
7129;DHT22;3606;52.930;8.644;2023-03-24T09:49:03;15.10;99.90
7129;DHT22;3606;52.930;8.644;2023-03-24T09:51:33;15.20;99.90
7129;DHT22;3606;52.930;8.644;2023-03-24T09:56:35;14.60;99.90
7129;DHT22;3606;52.930;8.644;2023-03-24T09:59:17;14.70;99.90
7129;DHT22;3606;52.930;8.644;2023-03-24T10:01:43;15.60;99.90
7129;DHT22;3606;52.930;8.644;2023-03-24T10:04:17;16.10;99.90
7129;DHT22;3606;52.930;8.644;2023-03-24T10:06:44;15.40;99.90
7129;DHT22;3606;52.930;8.644;2023-03-24T10:25:19;14.30;99.90
7129;DHT22;3606;52.930;8.644;2023-03-24T10:27:59;13.70;99.90
7129;DHT22;3606;52.930;8.644;2023-03-24T10:30:32;13.80;99.90
7129;DHT22;3606;52.930;8.644;2023-03-24T10:32:58;13.70;99.90
7129;DHT22;3606;52.930;8.644;2023-03-24T10:35:28;13.50;99.90
7129;DHT22;3606;52.930;8.644;2023-03-24T10:37:58;13.40;99.90
7129;DHT22;3606;52.930;8.644;2023-03-24T10:40:28;13.40;99.90
7129;DHT22;3606;52.930;8.644;2023-03-24T10:42:57;13.40;99.90
7129;DHT22;3606;52.930;8.644;2023-03-24T10:45:32;13.70;99.90
7129;DHT22;3606;52.930;8.644;2023-03-24T10:48:00;14.20;99.90
7129;DHT22;3606;52.930;8.644;2023-03-24T10:50:28;15.40;99.90
7129;DHT22;3606;52.930;8.644;2023-03-24T10:52:54;16.80;99.90
7129;DHT22;3606;52.930;8.644;2023-03-24T10:55:23;18.10;99.90
7129;DHT22;3606;52.930;8.644;2023-03-24T10:57:56;18.70;99.90
7129;DHT22;3606;52.930;8.644;2023-03-24T11:00:30;19.70;99.90
7129;DHT22;3606;52.930;8.644;2023-03-24T11:02:59;20.40;99.90
7129;DHT22;3606;52.930;8.644;2023-03-24T11:05:31;21.00;99.90
7129;DHT22;3606;52.930;8.644;2023-03-24T11:10:50;17.80;99.90
7129;DHT22;3606;52.930;8.644;2023-03-24T11:13:27;16.20;99.90
7129;DHT22;3606;52.930;8.644;2023-03-24T11:15:56;16.00;99.90
7129;DHT22;3606;52.930;8.644;2023-03-24T11:18:28;17.50;99.90
7129;DHT22;3606;52.930;8.644;2023-03-24T11:20:59;17.90;99.90
7129;DHT22;3606;52.930;8.644;2023-03-24T11:23:47;16.90;99.90
7129;DHT22;3606;52.930;8.644;2023-03-24T11:26:14;16.60;99.90
7129;DHT22;3606;52.930;8.644;2023-03-24T11:29:04;16.10;99.90
7129;DHT22;3606;52.930;8.644;2023-03-24T11:31:34;16.30;99.90
7129;DHT22;3606;52.930;8.644;2023-03-24T11:34:16;17.50;99.90
7129;DHT22;3606;52.930;8.644;2023-03-24T11:36:55;18.40;99.90
7129;DHT22;3606;52.930;8.644;2023-03-24T11:39:26;18.20;99.90
7129;DHT22;3606;52.930;8.644;2023-03-24T11:42:31;17.00;99.90
7129;DHT22;3606;52.930;8.644;2023-03-24T11:44:51;16.90;99.90
7129;DHT22;3606;52.930;8.644;2023-03-24T11:55:42;16.40;99.90
7129;DHT22;3606;52.930;8.644;2023-03-24T11:58:26;16.70;99.90
7129;DHT22;3606;52.930;8.644;2023-03-24T12:01:05;16.70;99.90
7129;DHT22;3606;52.930;8.644;2023-03-24T12:03:48;17.10;99.90
7129;DHT22;3606;52.930;8.644;2023-03-24T12:06:26;17.30;99.90
7129;DHT22;3606;52.930;8.644;2023-03-24T12:09:26;17.20;99.90
7129;DHT22;3606;52.930;8.644;2023-03-24T12:17:44;17.50;99.90
7129;DHT22;3606;52.930;8.644;2023-03-24T12:20:20;17.70;99.90
7129;DHT22;3606;52.930;8.644;2023-03-24T12:22:58;17.80;99.90
7129;DHT22;3606;52.930;8.644;2023-03-24T12:37:00;18.30;99.90
7129;DHT22;3606;52.930;8.644;2023-03-24T12:39:34;18.00;99.90
7129;DHT22;3606;52.930;8.644;2023-03-24T12:42:10;17.70;99.90
7129;DHT22;3606;52.930;8.644;2023-03-24T12:55:11;17.50;99.90
7129;DHT22;3606;52.930;8.644;2023-03-24T12:58:03;17.80;99.90
7129;DHT22;3606;52.930;8.644;2023-03-24T13:00:56;17.70;99.90
7129;DHT22;3606;52.930;8.644;2023-03-24T13:04:12;17.80;99.90
7129;DHT22;3606;52.930;8.644;2023-03-24T13:14:27;18.80;99.90
7129;DHT22;3606;52.930;8.644;2023-03-24T13:17:02;19.30;99.90
7129;DHT22;3606;52.930;8.644;2023-03-24T13:19:29;19.60;99.90
7129;DHT22;3606;52.930;8.644;2023-03-24T13:21:56;20.10;99.90
7129;DHT22;3606;52.930;8.644;2023-03-24T13:24:22;19.00;99.90
7129;DHT22;3606;52.930;8.644;2023-03-24T13:27:10;17.40;99.90
7129;DHT22;3606;52.930;8.644;2023-03-24T13:34:55;15.90;99.90
7129;DHT22;3606;52.930;8.644;2023-03-24T13:37:30;15.80;99.90
7129;DHT22;3606;52.930;8.644;2023-03-24T13:39:59;15.70;99.90
7129;DHT22;3606;52.930;8.644;2023-03-24T13:42:35;15.30;99.90
7129;DHT22;3606;52.930;8.644;2023-03-24T13:45:06;14.50;99.90
7129;DHT22;3606;52.930;8.644;2023-03-24T13:47:54;13.40;99.90
7129;DHT22;3606;52.930;8.644;2023-03-24T13:50:26;13.00;99.90
7129;DHT22;3606;52.930;8.644;2023-03-24T13:52:53;13.90;99.90
7129;DHT22;3606;52.930;8.644;2023-03-24T13:55:25;15.80;99.90
7129;DHT22;3606;52.930;8.644;2023-03-24T14:01:15;19.10;99.90
7129;DHT22;3606;52.930;8.644;2023-03-24T14:04:13;20.30;99.90
7129;DHT22;3606;52.930;8.644;2023-03-24T14:09:28;21.30;99.90
7129;DHT22;3606;52.930;8.644;2023-03-24T14:19:41;16.90;99.90
7129;DHT22;3606;52.930;8.644;2023-03-24T14:22:14;16.30;99.90
7129;DHT22;3606;52.930;8.644;2023-03-24T14:24:44;16.00;99.90
7129;DHT22;3606;52.930;8.644;2023-03-24T14:30:28;15.20;99.90
7129;DHT22;3606;52.930;8.644;2023-03-24T14:33:00;15.10;99.90
7129;DHT22;3606;52.930;8.644;2023-03-24T14:35:39;15.00;99.90
7129;DHT22;3606;52.930;8.644;2023-03-24T14:40:42;14.90;99.90
7129;DHT22;3606;52.930;8.644;2023-03-24T14:48:39;14.20;99.90
7129;DHT22;3606;52.930;8.644;2023-03-24T14:54:17;13.80;99.90
7129;DHT22;3606;52.930;8.644;2023-03-24T14:56:50;13.30;99.90
7129;DHT22;3606;52.930;8.644;2023-03-24T15:02:22;14.50;99.90
7129;DHT22;3606;52.930;8.644;2023-03-24T15:07:41;16.60;99.90
7129;DHT22;3606;52.930;8.644;2023-03-24T15:10:15;17.00;99.90
7129;DHT22;3606;52.930;8.644;2023-03-24T15:12:46;16.00;99.90
7129;DHT22;3606;52.930;8.644;2023-03-24T15:15:22;15.60;99.90
7129;DHT22;3606;52.930;8.644;2023-03-24T15:17:50;15.20;99.90
7129;DHT22;3606;52.930;8.644;2023-03-24T15:20:32;15.80;99.90
7129;DHT22;3606;52.930;8.644;2023-03-24T15:23:06;16.20;99.90
7129;DHT22;3606;52.930;8.644;2023-03-24T15:25:32;15.70;99.90
7129;DHT22;3606;52.930;8.644;2023-03-24T15:27:58;15.10;99.90
7129;DHT22;3606;52.930;8.644;2023-03-24T15:30:24;14.70;99.90
7129;DHT22;3606;52.930;8.644;2023-03-24T15:32:50;14.70;99.90
7129;DHT22;3606;52.930;8.644;2023-03-24T15:35:21;14.50;99.90
7129;DHT22;3606;52.930;8.644;2023-03-24T15:37:54;14.30;99.90
7129;DHT22;3606;52.930;8.644;2023-03-24T15:42:59;13.60;99.90
7129;DHT22;3606;52.930;8.644;2023-03-24T15:45:35;13.50;99.90
7129;DHT22;3606;52.930;8.644;2023-03-24T15:48:06;13.40;99.90
7129;DHT22;3606;52.930;8.644;2023-03-24T15:50:39;13.30;99.90
7129;DHT22;3606;52.930;8.644;2023-03-24T15:55:38;13.10;99.90
7129;DHT22;3606;52.930;8.644;2023-03-24T15:58:27;13.10;99.90
7129;DHT22;3606;52.930;8.644;2023-03-24T16:00:59;13.00;99.90
7129;DHT22;3606;52.930;8.644;2023-03-24T16:03:25;12.90;99.90
7129;DHT22;3606;52.930;8.644;2023-03-24T16:05:53;12.80;99.90
7129;DHT22;3606;52.930;8.644;2023-03-24T16:08:32;12.80;99.90
7129;DHT22;3606;52.930;8.644;2023-03-24T16:11:11;12.80;99.90
7129;DHT22;3606;52.930;8.644;2023-03-24T16:13:39;12.80;99.90
7129;DHT22;3606;52.930;8.644;2023-03-24T16:18:44;12.70;99.90
7129;DHT22;3606;52.930;8.644;2023-03-24T16:21:16;12.80;99.90
7129;DHT22;3606;52.930;8.644;2023-03-24T16:23:43;12.70;99.90
7129;DHT22;3606;52.930;8.644;2023-03-24T16:28:38;12.70;99.90
7129;DHT22;3606;52.930;8.644;2023-03-24T16:31:04;12.50;99.90
7129;DHT22;3606;52.930;8.644;2023-03-24T16:33:31;12.40;99.90
7129;DHT22;3606;52.930;8.644;2023-03-24T16:35:57;12.30;99.90
7129;DHT22;3606;52.930;8.644;2023-03-24T16:38:24;12.30;99.90
7129;DHT22;3606;52.930;8.644;2023-03-24T16:40:53;12.20;99.90
7129;DHT22;3606;52.930;8.644;2023-03-24T16:43:19;12.20;99.90
7129;DHT22;3606;52.930;8.644;2023-03-24T16:45:46;12.20;99.90
7129;DHT22;3606;52.930;8.644;2023-03-24T16:48:13;12.20;99.90
7129;DHT22;3606;52.930;8.644;2023-03-24T16:50:41;12.10;99.90
7129;DHT22;3606;52.930;8.644;2023-03-24T16:53:07;12.10;99.90
7129;DHT22;3606;52.930;8.644;2023-03-24T16:55:37;12.00;99.90
7129;DHT22;3606;52.930;8.644;2023-03-24T16:58:04;11.90;99.90
7129;DHT22;3606;52.930;8.644;2023-03-24T17:00:30;11.80;99.90
7129;DHT22;3606;52.930;8.644;2023-03-24T17:02:57;11.70;99.90
7129;DHT22;3606;52.930;8.644;2023-03-24T17:05:30;11.60;99.90
7129;DHT22;3606;52.930;8.644;2023-03-24T17:07:56;11.50;99.90
7129;DHT22;3606;52.930;8.644;2023-03-24T17:10:26;11.40;99.90
7129;DHT22;3606;52.930;8.644;2023-03-24T17:12:54;11.30;99.90
7129;DHT22;3606;52.930;8.644;2023-03-24T17:15:28;11.20;99.90
7129;DHT22;3606;52.930;8.644;2023-03-24T17:17:55;11.20;99.90
7129;DHT22;3606;52.930;8.644;2023-03-24T17:20:22;11.10;99.90
7129;DHT22;3606;52.930;8.644;2023-03-24T17:22:52;11.00;99.90
7129;DHT22;3606;52.930;8.644;2023-03-24T17:25:20;11.00;99.90
7129;DHT22;3606;52.930;8.644;2023-03-24T17:27:49;10.90;99.90
7129;DHT22;3606;52.930;8.644;2023-03-24T17:30:20;10.90;99.90
7129;DHT22;3606;52.930;8.644;2023-03-24T17:32:46;10.80;99.90
7129;DHT22;3606;52.930;8.644;2023-03-24T17:35:15;10.70;99.90
7129;DHT22;3606;52.930;8.644;2023-03-24T17:37:41;10.70;99.90
7129;DHT22;3606;52.930;8.644;2023-03-24T17:40:09;10.70;99.90
7129;DHT22;3606;52.930;8.644;2023-03-24T17:42:38;10.60;99.90
7129;DHT22;3606;52.930;8.644;2023-03-24T17:45:05;10.50;99.90
7129;DHT22;3606;52.930;8.644;2023-03-24T17:47:32;10.40;99.90
7129;DHT22;3606;52.930;8.644;2023-03-24T17:49:58;10.30;99.90
7129;DHT22;3606;52.930;8.644;2023-03-24T17:52:24;10.30;99.90
7129;DHT22;3606;52.930;8.644;2023-03-24T17:54:50;10.20;99.90
7129;DHT22;3606;52.930;8.644;2023-03-24T17:57:15;10.20;99.90
7129;DHT22;3606;52.930;8.644;2023-03-24T17:59:41;10.20;99.90
7129;DHT22;3606;52.930;8.644;2023-03-24T18:02:11;10.10;99.90
7129;DHT22;3606;52.930;8.644;2023-03-24T18:04:36;10.10;99.90
7129;DHT22;3606;52.930;8.644;2023-03-24T18:07:02;10.00;99.90
7129;DHT22;3606;52.930;8.644;2023-03-24T18:09:31;9.90;99.90
7129;DHT22;3606;52.930;8.644;2023-03-24T18:11:57;9.90;99.90
7129;DHT22;3606;52.930;8.644;2023-03-24T18:14:23;9.80;99.90
7129;DHT22;3606;52.930;8.644;2023-03-24T18:16:48;9.80;99.90
7129;DHT22;3606;52.930;8.644;2023-03-24T18:19:14;9.70;99.90
7129;DHT22;3606;52.930;8.644;2023-03-24T18:21:40;9.80;99.90
7129;DHT22;3606;52.930;8.644;2023-03-24T18:24:06;9.70;99.90
7129;DHT22;3606;52.930;8.644;2023-03-24T18:26:32;9.70;99.90
7129;DHT22;3606;52.930;8.644;2023-03-24T18:28:58;9.60;99.90
7129;DHT22;3606;52.930;8.644;2023-03-24T18:31:24;9.50;99.90
7129;DHT22;3606;52.930;8.644;2023-03-24T18:33:56;9.50;99.90
7129;DHT22;3606;52.930;8.644;2023-03-24T18:36:22;9.60;99.90
7129;DHT22;3606;52.930;8.644;2023-03-24T18:38:58;9.60;99.90
7129;DHT22;3606;52.930;8.644;2023-03-24T18:41:24;9.60;99.90
7129;DHT22;3606;52.930;8.644;2023-03-24T18:43:55;9.50;99.90
7129;DHT22;3606;52.930;8.644;2023-03-24T18:46:22;9.50;99.90
7129;DHT22;3606;52.930;8.644;2023-03-24T18:48:48;9.50;99.90